Port Alberni

METAR CBS8 310600Z AUTO 13005KT 19/10 A3012 RMK A01 SLP199 10305 20187 403190119 51010=
METAR
Airport Name
CBS8 - Port Alberni
DATE - TIME
31 JULY 2014 - 0600 UTC
WIND
130 TRUE @ 05 KNOTS
TEMP / DEWPOINT
19 C / 10 C
ALTIMETER
30.12 IN HG
REMARKS
RMK A01 SLP199 10305 20187 403190119 51010=
SEA LEVEL PRESSURE: 1019.9 hPa

METAR CBS8 310500Z AUTO 13010KT 21/09 A3011 RMK A01 SLP197 10310 20209 403190119 51010=
METAR
Airport Name
CBS8 - Port Alberni
DATE - TIME
31 JULY 2014 - 0500 UTC
WIND
130 TRUE @ 10 KNOTS
TEMP / DEWPOINT
21 C / 09 C
ALTIMETER
30.11 IN HG
REMARKS
RMK A01 SLP197 10310 20209 403190119 51010=
SEA LEVEL PRESSURE: 1019.7 hPa

METAR CBS8 310400Z AUTO 11008KT 23/08 A3009 RMK A01 SLP191 10319 20225 403190119 51005=
METAR
Airport Name
CBS8 - Port Alberni
DATE - TIME
31 JULY 2014 - 0400 UTC
WIND
110 TRUE @ 08 KNOTS
TEMP / DEWPOINT
23 C / 08 C
ALTIMETER
30.09 IN HG
REMARKS
RMK A01 SLP191 10319 20225 403190119 51005=
SEA LEVEL PRESSURE: 1019.1 hPa

Your time UTC time
 
 
Weather data provided by Axys Technologies Inc., www.axystechnologies.com
 
Station History